Terminal Aerodrome Forecast
Issued by NWS Sterling, VA

Current Version | Previous Version | Text Only | Print | Product List | Glossary Off
Versions: 1 2 3 4 5 6 7 8 9 10 11 12 13 14 15 16 17 18 19 20 21 22 23 24

000
FTUS41 KLWX 171100 RRA
TAFIAD
TAF
KIAD 171148Z 1712/1818 00000KT P6SM OVC090
     FM171400 30008KT P6SM SCT040 BKN110
     FM171800 28006KT P6SM VCTS SCT040CB BKN090
     FM172200 29004KT P6SM SCT040 BKN120=

USA.gov is the U.S. government's official web portal to all federal, state and local government web resources and services.